This is the latest recevied weather packets stored in our database for station/object G4GVZ-1. If no packets are shown the sender has not sent any weather packets the latest 10 day(s).
| Time | Temp. | Humidity | Pressure | Rain* | Wind** | Luminosity | Snow |
|---|---|---|---|---|---|---|---|
| 1777416351 | 7.78° C | 71% | 1025.5 hPa | 0 mm | - | - | - |
| 1777415450 | 8.33° C | 69% | 1025.5 hPa | 0 mm | - | - | - |
| 1777414552 | 8.33° C | 67% | 1025.5 hPa | 0 mm | - | - | - |
| 1777413652 | 8.33° C | 66% | 1025.5 hPa | 0 mm | - | - | - |
| 1777412752 | 8.89° C | 65% | 1025.5 hPa | 0 mm | - | - | - |
| 1777411851 | 9.44° C | 64% | 1025.5 hPa | 0 mm | - | - | - |
| 1777410951 | 9.44° C | 65% | 1025.4 hPa | 0 mm | - | - | - |
| 1777410051 | 9.44° C | 64% | 1025.4 hPa | 0 mm | - | - | - |
| 1777409151 | 10° C | 63% | 1025.3 hPa | 0 mm | - | - | - |
| 1777408251 | 10.56° C | 62% | 1025.2 hPa | 0 mm | - | - | - |
| 1777407352 | 10.56° C | 60% | 1025.1 hPa | 0 mm | - | - | - |
| 1777406452 | 11.11° C | 59% | 1025 hPa | 0 mm | - | - | - |
| 1777405551 | 11.11° C | 58% | 1025.1 hPa | 0 mm | - | - | - |
| 1777404651 | 11.67° C | 59% | 1024.9 hPa | 0 mm | - | - | - |
| 1777403751 | 12.22° C | 57% | 1024.9 hPa | 0 mm | - | - | - |
| 1777402853 | 12.22° C | 54% | 1024.7 hPa | 0 mm | - | - | - |
| 1777401952 | 12.78° C | 53% | 1024.5 hPa | 0 mm | - | - | - |
| 1777401052 | 13.33° C | 52% | 1024.3 hPa | 0 mm | - | - | - |
| 1777400151 | 13.33° C | 50% | 1024.3 hPa | 0 mm | - | - | - |
| 1777399251 | 13.89° C | 50% | 1024.1 hPa | 0 mm | - | - | - |
| 1777398351 | 13.89° C | 54% | 1024.1 hPa | 0 mm | - | - | - |
| 1777397450 | 13.89° C | 53% | 1024 hPa | 0 mm | - | - | - |
| 1777396550 | 14.44° C | 55% | 1024 hPa | 0 mm | - | - | - |
| 1777396206 | 10.56° C | 78% | 1026 hPa | 0 mm | - | - | - |
| 1777396205 | 10.56° C | 78% | 1026 hPa | 0 mm | - | - | - |
* Rain latest hour (hover to see other rain measurements)
** Current wind speed in m/s (hover to see current wind gust speed)